Terminal Aerodrome Forecast
Issued by NWS Shreveport, LA

Home | Current Version | Previous Version | Text Only | Print | Product List | Glossary On
Versions: 1 2 3 4 5 6 7 8 9 10 11 12 13
000
FTUS44 KSHV 172300
TAFSHV
TAF
KSHV 172339Z 1800/1824 VRB04KT P6SM FEW070 SCT250
     FM180400 VRB03KT P6SM BKN080
     FM181500 01006KT P6SM SCT080
     FM181800 01008KT P6SM SCT040=

USA.gov is the U.S. government's official web portal to all federal, state and local government web resources and services.